Time;durP1;ratioP1;P1;durP2;ratioP2;P2;SDS_P1;SDS_P2;PMS_P1;PMS_P2;Temp;Humidity;BMP_temperature;BMP_pressure;BME280_temperature;BME280_humidity;BME280_pressure;Samples;Min_cycle;Max_cycle;Signal;HPM_P1;HPM_P2
2022/11/14 00:04:06;;;;;;;21.83;10.17;;;4.40;99.90;;;2.00;100.00;101283.16;10502599;28;20060;-89
2022/11/14 00:09:09;;;;;;;25.83;11.70;;;4.30;99.90;;;1.89;100.00;101288.97;10486303;28;20061;-88
2022/11/14 00:14:12;;;;;;;22.07;11.17;;;4.20;99.90;;;1.77;100.00;101298.38;10494958;28;20060;-88
2022/11/14 00:19:14;;;;;;;23.60;11.50;;;4.10;99.90;;;1.68;100.00;101291.03;10518008;28;20052;-87
2022/11/14 00:24:18;;;;;;;23.23;9.83;;;4.00;99.90;;;1.58;100.00;101287.22;10477280;28;20448;-88
2022/11/14 00:29:21;;;;;;;27.13;12.03;;;3.90;99.90;;;1.51;100.00;101278.00;10495523;28;20067;-88
2022/11/14 00:34:24;;;;;;;27.40;11.53;;;3.90;99.90;;;1.42;100.00;101275.88;10485067;28;20409;-90
2022/11/14 00:39:27;;;;;;;23.00;10.70;;;3.80;99.90;;;1.34;100.00;101277.13;10442735;28;20061;-90
2022/11/14 00:44:31;;;;;;;28.17;11.90;;;3.70;99.90;;;1.27;100.00;101273.16;10493945;28;20064;-89
2022/11/14 00:49:34;;;;;;;30.60;12.10;;;3.70;99.90;;;1.24;100.00;101278.53;10476304;28;20057;-89
2022/11/14 00:54:37;;;;;;;23.90;10.27;;;3.60;99.90;;;1.18;100.00;101276.25;10443516;28;20059;-89
2022/11/14 00:59:40;;;;;;;25.20;11.50;;;3.60;99.90;;;1.15;100.00;101271.19;10458634;28;20057;-90
2022/11/14 01:04:43;;;;;;;26.07;11.93;;;3.50;99.90;;;1.10;100.00;101274.97;10488579;28;20061;-89
2022/11/14 01:09:46;;;;;;;28.07;11.93;;;3.50;99.90;;;1.06;100.00;101272.50;10498079;28;20143;-87
2022/11/14 01:14:49;;;;;;;23.43;10.83;;;3.40;99.90;;;1.02;100.00;101271.00;10494507;28;20114;-87
2022/11/14 01:19:52;;;;;;;24.57;10.93;;;3.40;99.90;;;1.00;100.00;101272.00;10496577;28;20057;-87
2022/11/14 01:24:57;;;;;;;24.70;10.30;;;3.40;99.90;;;0.94;100.00;101262.69;10504189;28;20064;-87
2022/11/14 01:30:00;;;;;;;21.83;10.43;;;3.40;99.90;;;0.89;100.00;101267.31;10545732;27;20138;-87
2022/11/14 01:35:03;;;;;;;23.23;10.53;;;3.30;99.90;;;0.87;100.00;101268.31;10446988;28;20116;-87
2022/11/14 01:40:07;;;;;;;24.77;10.53;;;3.30;99.90;;;0.80;100.00;101255.56;10458950;28;20067;-87
2022/11/14 01:45:50;;;;;;;31.10;11.27;;;3.20;99.90;;;0.77;100.00;101265.34;10529704;28;20057;-88
2022/11/14 01:51:33;;;;;;;30.83;11.40;;;3.10;99.90;;;0.78;100.00;101270.50;10491521;28;20053;-89
2022/11/14 01:56:49;;;;;;;39.53;12.75;;;3.10;99.90;;;0.86;100.00;101269.25;10503519;28;20061;-89
2022/11/14 02:01:53;;;;;;;29.50;11.83;;;3.20;99.90;;;0.92;100.00;101254.09;10493660;28;20057;-89
2022/11/14 02:07:02;;;;;;;36.40;11.77;;;3.30;99.90;;;1.01;100.00;101247.50;10527244;28;20087;-88
2022/11/14 02:12:09;;;;;;;34.13;10.07;;;3.40;99.90;;;1.10;100.00;101251.41;10514111;28;20065;-87
2022/11/14 02:17:14;;;;;;;29.40;9.70;;;3.50;99.90;;;1.16;100.00;101248.47;10499473;28;20053;-87
2022/11/14 02:22:31;;;;;;;26.03;8.77;;;3.50;99.90;;;1.23;100.00;101242.81;10505485;28;20061;-87
2022/11/14 02:27:36;;;;;;;32.17;9.57;;;3.60;99.90;;;1.31;100.00;101238.00;10480813;28;20053;-87
2022/11/14 02:32:39;;;;;;;31.33;8.83;;;3.70;99.90;;;1.30;100.00;101228.47;10483788;28;20057;-87
2022/11/14 02:38:02;;;;;;;29.67;7.80;;;3.70;99.90;;;1.39;100.00;101237.63;10491322;28;20136;-87
2022/11/14 02:43:05;;;;;;;37.70;9.70;;;3.80;99.90;;;1.44;100.00;101246.06;10529302;28;20057;-87
2022/11/14 02:48:09;;;;;;;28.27;8.40;;;3.80;99.90;;;1.49;100.00;101240.56;10538071;28;20053;-86
2022/11/14 02:53:12;;;;;;;27.03;7.07;;;3.90;99.90;;;1.55;100.00;101242.84;10502720;28;20061;-86
2022/11/14 02:58:15;;;;;;;30.97;8.33;;;3.90;99.90;;;1.59;100.00;101236.50;10486649;28;20080;-86
2022/11/14 03:03:18;;;;;;;20.53;6.97;;;4.00;99.90;;;1.61;100.00;101221.53;10494756;28;20065;-87
2022/11/14 03:08:21;;;;;;;25.07;7.07;;;4.00;99.90;;;1.62;100.00;101231.09;10522491;28;20540;-87
2022/11/14 03:13:29;;;;;;;33.10;7.10;;;4.00;99.90;;;1.58;100.00;101226.97;10498207;28;20057;-87
2022/11/14 03:18:32;;;;;;;19.17;7.10;;;4.00;99.90;;;1.52;100.00;101222.06;10496961;28;20142;-87
2022/11/14 03:23:35;;;;;;;21.77;6.33;;;3.90;99.90;;;1.44;100.00;101224.25;10506887;28;20115;-88
2022/11/14 03:28:39;;;;;;;19.40;5.80;;;3.80;99.90;;;1.38;100.00;101212.34;10484449;28;20424;-88
2022/11/14 03:33:42;;;;;;;16.63;5.87;;;3.80;99.90;;;1.32;100.00;101217.94;10498278;28;20501;-88
2022/11/14 03:38:45;;;;;;;17.67;5.77;;;3.70;99.90;;;1.25;100.00;101211.31;10503677;28;20091;-89
2022/11/14 03:43:48;;;;;;;20.73;7.10;;;3.60;99.90;;;1.20;100.00;101215.94;10493034;28;20063;-87
2022/11/14 03:48:51;;;;;;;25.87;7.30;;;3.60;99.90;;;1.15;100.00;101218.00;10493560;28;20053;-86
2022/11/14 03:53:54;;;;;;;21.83;8.17;;;3.50;99.90;;;1.08;100.00;101214.88;10516055;28;20152;-87
2022/11/14 03:58:57;;;;;;;24.17;8.73;;;3.50;99.90;;;1.03;100.00;101215.09;10535741;28;20057;-90
2022/11/14 04:04:00;;;;;;;21.07;7.97;;;3.40;99.90;;;0.93;100.00;101207.81;10500888;28;20061;-90
2022/11/14 04:09:03;;;;;;;27.90;9.77;;;3.40;99.90;;;0.89;100.00;101214.13;10519327;28;20072;-90
2022/11/14 04:14:06;;;;;;;27.50;9.30;;;3.30;99.90;;;0.79;100.00;101206.78;10490910;28;20320;-90
2022/11/14 04:19:09;;;;;;;30.00;9.77;;;3.20;99.90;;;0.70;100.00;101202.00;10509726;28;20057;-90
2022/11/14 04:24:12;;;;;;;27.73;9.80;;;3.10;99.90;;;0.69;100.00;101210.78;10533313;28;20084;-89
2022/11/14 04:29:14;;;;;;;30.00;8.67;;;3.10;99.90;;;0.64;100.00;101196.25;10492370;28;20061;-88
2022/11/14 04:34:17;;;;;;;20.20;7.47;;;3.00;99.90;;;0.64;100.00;101191.03;10515495;28;20140;-89
2022/11/14 04:39:20;;;;;;;20.83;9.27;;;3.00;99.90;;;0.59;100.00;101186.03;10483400;28;20064;-88
2022/11/14 04:44:23;;;;;;;19.57;8.03;;;3.00;99.90;;;0.57;100.00;101176.59;10476807;28;20445;-87
2022/11/14 04:49:27;;;;;;;17.17;7.87;;;3.00;99.90;;;0.53;100.00;101175.88;10497026;28;20143;-87
2022/11/14 04:54:30;;;;;;;15.17;7.30;;;2.90;99.90;;;0.48;100.00;101170.91;10496658;28;20547;-87
2022/11/14 04:59:33;;;;;;;17.53;8.20;;;2.90;99.90;;;0.44;100.00;101169.38;10482605;28;20061;-88
2022/11/14 05:04:36;;;;;;;19.60;8.43;;;2.90;99.90;;;0.39;100.00;101166.16;10474413;28;20385;-86
2022/11/14 05:09:39;;;;;;;29.70;8.80;;;2.80;99.90;;;0.32;100.00;101159.56;10499424;28;20068;-86
2022/11/14 05:14:41;;;;;;;18.33;7.63;;;2.80;99.90;;;0.33;100.00;101165.63;10473568;28;20528;-87
2022/11/14 05:19:44;;;;;;;21.00;7.77;;;2.70;99.90;;;0.24;100.00;101148.63;10464817;28;20062;-84
2022/11/14 05:24:47;;;;;;;96.83;12.10;;;2.70;99.90;;;0.19;100.00;101159.34;10469591;28;20057;-84
2022/11/14 05:29:50;;;;;;;29.93;9.63;;;2.70;99.90;;;0.17;100.00;101153.31;10509833;28;20057;-84
2022/11/14 05:34:53;;;;;;;28.77;9.10;;;2.60;99.90;;;0.13;100.00;101159.66;10497097;28;20068;-84
2022/11/14 05:39:56;;;;;;;25.00;9.87;;;2.60;99.90;;;0.10;100.00;101156.34;10499950;28;20060;-84
2022/11/14 05:44:59;;;;;;;30.47;11.30;;;2.50;99.90;;;0.10;100.00;101169.41;10482036;28;20547;-87
2022/11/14 05:50:03;;;;;;;26.47;10.17;;;2.60;99.90;;;0.06;100.00;101168.72;10480771;28;20138;-87
2022/11/14 05:55:07;;;;;;;27.80;10.23;;;2.50;99.90;;;0.01;100.00;101168.13;10487937;28;20460;-84
2022/11/14 06:00:10;;;;;;;22.47;9.23;;;2.50;99.90;;;0.00;100.00;101169.03;10495295;28;20062;-84
2022/11/14 06:05:13;;;;;;;34.47;11.53;;;2.40;99.90;;;-0.02;100.00;101174.31;10513076;28;20049;-84
2022/11/14 06:10:16;;;;;;;31.57;11.83;;;2.40;99.90;;;-0.01;100.00;101173.38;10490370;28;20099;-84
2022/11/14 06:15:19;;;;;;;38.10;13.90;;;2.40;99.90;;;0.05;100.00;101177.47;10502375;28;20066;-84
2022/11/14 06:20:23;;;;;;;33.17;11.93;;;2.50;99.90;;;0.12;100.00;101180.63;10485898;28;20571;-84
2022/11/14 06:25:26;;;;;;;42.47;14.83;;;2.50;99.90;;;0.19;100.00;101188.09;10505356;28;20089;-84
2022/11/14 06:30:29;;;;;;;38.57;14.23;;;2.60;99.90;;;0.34;100.00;101194.31;10504863;28;20060;-84
2022/11/14 06:35:32;;;;;;;42.23;13.73;;;2.70;99.90;;;0.48;100.00;101197.06;10474972;28;20066;-84
2022/11/14 06:40:35;;;;;;;47.97;14.97;;;2.80;99.90;;;0.64;100.00;101194.50;10486139;28;20061;-84
2022/11/14 06:45:38;;;;;;;37.57;11.43;;;3.00;99.90;;;0.80;100.00;101198.00;10504143;28;20057;-84
2022/11/14 06:50:41;;;;;;;40.97;13.10;;;3.10;99.90;;;0.98;100.00;101200.56;10495794;28;20089;-84
2022/11/14 06:55:59;;;;;;;27.73;10.80;;;3.30;99.90;;;1.25;100.00;101192.97;10502924;28;20110;-83
2022/11/14 07:01:15;;;;;;;39.93;15.77;;;3.40;99.90;;;1.66;100.00;101190.69;10521041;28;20064;-84
2022/11/14 07:06:25;;;;;;;30.13;13.57;;;3.60;99.90;;;1.99;100.00;101181.84;10500225;28;20076;-84
2022/11/14 07:11:28;;;;;;;42.17;20.43;;;3.90;99.90;;;2.21;100.00;101187.50;10502966;28;20543;-84
2022/11/14 07:16:34;;;;;;;41.20;19.53;;;4.10;99.90;;;2.42;100.00;101194.13;10475994;28;20144;-83
2022/11/14 07:21:37;;;;;;;36.17;19.57;;;4.40;99.90;;;2.67;100.00;101184.75;10486583;28;20068;-84
2022/11/14 07:26:41;;;;;;;38.57;19.13;;;4.60;99.90;;;3.04;100.00;101183.34;10484828;28;20061;-84
2022/11/14 07:31:43;;;;;;;52.97;26.37;;;4.90;99.90;;;3.25;100.00;101183.81;10499297;28;20060;-84
2022/11/14 07:36:46;;;;;;;60.30;29.07;;;5.10;99.90;;;3.40;100.00;101180.19;10465798;28;20111;-84
2022/11/14 07:41:49;;;;;;;52.03;24.87;;;5.30;99.90;;;3.62;100.00;101181.44;10500418;28;20064;-84
2022/11/14 07:46:52;;;;;;;72.60;35.40;;;5.60;99.90;;;3.87;100.00;101181.53;10534853;28;20061;-84
2022/11/14 07:51:55;;;;;;;49.80;23.63;;;5.90;99.90;;;4.21;100.00;101168.78;10485944;28;20061;-84
2022/11/14 07:56:58;;;;;;;61.30;29.33;;;6.20;99.90;;;4.64;100.00;101171.09;10469848;28;20057;-84
2022/11/14 08:02:01;;;;;;;49.40;22.97;;;6.50;99.90;;;4.86;100.00;101166.03;10476178;28;20521;-84
2022/11/14 08:07:04;;;;;;;54.47;27.73;;;6.80;99.90;;;5.10;100.00;101168.72;10460166;28;20058;-84
2022/11/14 08:12:07;;;;;;;46.27;26.60;;;7.10;99.90;;;5.43;100.00;101154.91;10511656;28;20064;-84
2022/11/14 08:17:10;;;;;;;36.70;20.10;;;7.50;99.90;;;6.08;100.00;101157.16;10460536;28;20061;-84
2022/11/14 08:22:13;;;;;;;24.33;15.03;;;8.10;99.90;;;6.83;100.00;101142.59;10501871;28;20138;-84
2022/11/14 08:27:16;;;;;;;24.83;13.33;;;8.70;99.90;;;7.55;100.00;101144.75;10462434;28;20060;-84
2022/11/14 08:32:20;;;;;;;21.23;13.20;;;9.30;99.90;;;8.16;100.00;101127.28;10482546;28;20064;-83
2022/11/14 08:37:22;;;;;;;19.83;12.13;;;9.90;99.90;;;8.73;100.00;101122.44;10460030;28;20046;-83
2022/11/14 08:42:26;;;;;;;17.17;11.63;;;10.50;99.90;;;9.20;100.00;101120.09;10462037;28;20061;-83
2022/11/14 08:47:29;;;;;;;15.93;11.20;;;10.90;99.90;;;9.65;100.00;101102.69;10501843;28;20069;-83
2022/11/14 08:52:32;;;;;;;14.73;9.87;;;11.30;99.90;;;10.06;100.00;101113.13;10479663;28;20064;-83
2022/11/14 08:57:35;;;;;;;15.80;10.02;;;11.80;99.90;;;10.47;100.00;101116.41;10526676;28;20061;-83
2022/11/14 09:02:38;;;;;;;16.83;10.13;;;12.30;99.90;;;10.81;100.00;101114.06;10494146;28;20068;-83
2022/11/14 09:07:41;;;;;;;15.18;8.60;;;12.90;99.90;;;11.24;100.00;101114.22;10478831;28;20144;-83
2022/11/14 09:12:44;;;;;;;14.82;9.20;;;13.40;99.90;;;11.58;97.19;101102.94;10481795;28;20065;-83
2022/11/14 09:17:47;;;;;;;13.45;9.35;;;13.80;99.90;;;11.93;94.26;101106.56;10516641;28;20063;-83
2022/11/14 09:22:52;;;;;;;16.38;10.65;;;14.10;99.90;;;11.94;90.25;101106.44;10514566;28;20145;-83
2022/11/14 09:27:55;;;;;;;14.38;9.75;;;14.30;99.90;;;11.93;86.77;101104.72;10506596;28;20057;-82
2022/11/14 09:33:00;;;;;;;15.35;9.38;;;14.40;99.90;;;12.10;86.04;101104.88;10506517;28;20084;-82
2022/11/14 09:38:10;;;;;;;18.33;10.10;;;14.60;99.90;;;12.01;83.80;101099.50;10515158;28;20061;-82
2022/11/14 09:43:46;;;;;;;18.83;10.57;;;14.50;99.90;;;11.85;83.47;101093.19;10491238;28;20060;-82
2022/11/14 09:48:51;;;;;;;11.00;7.63;;;14.20;99.90;;;11.44;83.06;101079.50;10476790;28;20061;-82
2022/11/14 09:54:19;;;;;;;14.17;8.83;;;13.80;99.90;;;10.90;82.96;101076.75;10488481;28;20107;-82
2022/11/14 09:59:23;;;;;;;12.80;8.07;;;13.20;99.90;;;10.91;83.95;101077.59;10490222;28;20061;-82
2022/11/14 10:04:48;;;;;;;15.63;9.63;;;13.10;99.90;;;11.30;83.80;101067.56;10488967;28;20063;-85
2022/11/14 10:10:25;;;;;;;14.82;8.00;;;13.50;99.90;;;12.09;83.79;101068.56;10508985;28;20086;-82
2022/11/14 10:15:45;;;;;;;13.32;8.73;;;14.30;99.90;;;12.77;81.03;101047.25;10488368;28;20049;-82
2022/11/14 10:20:54;;;;;;;12.30;7.68;;;15.20;99.90;;;13.43;80.17;101035.72;10501373;28;20527;-82
2022/11/14 10:26:31;;;;;;;14.38;8.18;;;15.90;99.90;;;14.06;77.21;101023.50;10505978;28;20055;-82
2022/11/14 10:31:57;;;;;;;14.23;9.80;;;16.40;99.90;;;14.59;75.49;101014.84;10498364;28;20057;-82
2022/11/14 10:37:28;;;;;;;13.48;8.88;;;16.90;99.90;;;14.61;72.27;101007.47;10489242;28;20057;-83
2022/11/14 10:42:36;;;;;;;11.13;7.47;;;16.90;99.90;;;14.62;72.40;101000.28;10465686;28;20058;-83
2022/11/14 10:47:45;;;;;;;14.52;9.02;;;16.90;99.90;;;14.54;72.23;100995.81;10502075;28;20504;-83
2022/11/14 10:52:56;;;;;;;10.43;7.25;;;16.80;99.90;;;14.44;70.85;100979.09;10507778;28;20500;-82
2022/11/14 10:57:59;;;;;;;11.45;7.10;;;16.80;99.90;;;14.19;70.56;100975.69;10532689;28;20057;-82
2022/11/14 11:03:03;;;;;;;13.88;8.73;;;16.40;99.90;;;13.92;70.80;100968.94;10486149;28;20456;-83
2022/11/14 11:13:58;;;;;;;14.98;8.73;;;15.70;99.90;;;13.02;71.61;100960.13;10484746;28;20053;-83
2022/11/14 11:19:29;;;;;;;12.60;8.15;;;15.20;99.90;;;12.49;73.12;100964.00;10477974;28;20088;-83
2022/11/14 11:24:36;;;;;;;16.35;9.73;;;14.60;99.90;;;12.06;75.19;100955.16;10461127;28;20464;-83
2022/11/14 11:29:39;;;;;;;16.53;8.97;;;14.20;99.90;;;11.69;75.90;100950.06;10479048;28;20476;-83
2022/11/14 11:34:42;;;;;;;20.80;10.03;;;13.80;99.90;;;11.38;77.52;100947.88;10489564;28;20059;-82
2022/11/14 11:39:54;;;;;;;15.17;9.33;;;13.50;99.90;;;11.16;78.76;100943.88;10503412;28;20061;-83
2022/11/14 11:45:03;;;;;;;14.77;9.50;;;13.20;99.90;;;10.98;80.06;100935.09;10470445;28;20505;-83
2022/11/14 11:50:15;;;;;;;19.27;9.73;;;13.00;99.90;;;10.88;81.10;100935.16;10466950;28;20057;-83
2022/11/14 11:55:28;;;;;;;13.57;7.90;;;12.90;99.90;;;10.84;81.98;100924.97;10478077;28;20057;-83
2022/11/14 12:00:32;;;;;;;17.27;8.87;;;12.90;99.90;;;10.76;82.50;100932.88;10482244;28;20065;-83
2022/11/14 12:05:57;;;;;;;16.33;10.60;;;12.80;99.90;;;10.71;83.15;100906.75;10460015;28;20413;-83
2022/11/14 12:11:03;;;;;;;13.40;8.47;;;12.80;99.90;;;10.69;83.70;100908.72;10477015;28;20136;-83
2022/11/14 12:16:26;;;;;;;14.93;8.07;;;12.70;99.90;;;10.72;83.97;100903.09;10474364;28;20072;-83
2022/11/14 12:21:47;;;;;;;14.20;8.40;;;12.80;99.90;;;10.74;84.25;100892.31;10501454;28;20057;-83
2022/11/14 12:27:38;;;;;;;14.87;8.67;;;12.80;99.90;;;10.77;84.58;100876.88;10519115;28;20067;-83
2022/11/14 12:33:09;;;;;;;14.03;8.40;;;12.80;99.90;;;10.77;84.64;100879.53;10501267;28;20061;-82
2022/11/14 12:38:18;;;;;;;15.85;9.00;;;12.80;99.90;;;10.79;84.80;100872.25;10483771;28;20080;-83
2022/11/14 12:43:40;;;;;;;18.70;9.17;;;12.90;99.90;;;10.83;85.07;100868.31;10533941;28;20061;-83
2022/11/14 12:48:45;;;;;;;12.90;7.87;;;12.90;99.90;;;10.83;85.50;100855.00;10479004;28;20123;-83
2022/11/14 12:53:48;;;;;;;15.40;8.70;;;13.00;99.90;;;10.86;85.82;100862.69;10501001;28;20152;-83
2022/11/14 12:59:03;;;;;;;17.43;9.40;;;13.00;99.90;;;10.85;85.57;100857.50;10470608;28;20057;-83
2022/11/14 13:04:12;;;;;;;17.63;9.40;;;13.00;99.90;;;10.84;85.57;100854.00;10494133;28;20092;-83
2022/11/14 13:09:39;;;;;;;12.90;7.90;;;13.00;99.90;;;10.84;85.51;100840.72;10529610;28;20057;-83
2022/11/14 13:26:12;;;;;;;14.10;7.67;;;13.00;99.90;;;10.81;85.80;100833.06;10448135;28;20057;-83
2022/11/14 13:31:15;;;;;;;27.27;9.73;;;13.00;99.90;;;10.81;85.87;100832.22;10472245;28;20056;-83
2022/11/14 13:37:04;;;;;;;19.97;10.90;;;13.00;99.90;;;10.77;85.93;100831.69;10500383;28;20057;-83
2022/11/14 13:42:23;;;;;;;38.87;24.10;;;12.90;99.90;;;10.73;85.80;100822.34;10479391;28;20076;-82
2022/11/14 13:47:50;;;;;;;18.10;10.33;;;12.90;99.90;;;10.68;85.71;100812.19;10479550;28;20531;-83
2022/11/14 13:52:54;;;;;;;21.37;12.27;;;12.80;99.90;;;10.61;86.02;100805.81;10475782;28;20061;-83
2022/11/14 13:58:39;;;;;;;14.53;8.73;;;12.80;99.90;;;10.57;86.64;100807.13;10449826;28;20057;-82
2022/11/14 14:04:16;;;;;;;15.57;9.33;;;12.70;99.90;;;10.50;86.88;100803.41;10481866;28;20060;-85
2022/11/14 14:09:44;;;;;;;13.17;8.07;;;12.70;99.90;;;10.37;87.47;100794.94;10482338;28;20058;-85
2022/11/14 14:15:28;;;;;;;16.67;9.80;;;12.50;99.90;;;10.24;87.97;100805.13;10514169;28;20156;-86
2022/11/14 14:20:52;;;;;;;11.83;7.10;;;12.40;99.90;;;10.05;88.30;100795.44;10529113;28;20103;-85
2022/11/14 14:26:32;;;;;;;14.97;8.73;;;12.20;99.90;;;9.84;88.71;100785.94;10497127;28;20053;-82
2022/11/14 14:31:39;;;;;;;18.73;9.23;;;12.00;99.90;;;9.61;88.76;100789.97;10521244;28;20053;-82
2022/11/14 14:36:53;;;;;;;22.20;10.00;;;11.70;99.90;;;9.34;89.79;100777.50;10461684;28;20156;-82
2022/11/14 14:41:57;;;;;;;24.57;12.17;;;11.50;99.90;;;9.14;90.63;100786.53;10490565;28;20143;-81
2022/11/14 14:47:41;;;;;;;30.27;14.90;;;11.30;99.90;;;8.95;91.38;100782.94;10497441;28;20057;-85
2022/11/14 14:52:44;;;;;;;20.37;12.20;;;11.10;99.90;;;8.75;91.76;100766.22;10501397;28;20072;-81
2022/11/14 14:57:47;;;;;;;29.30;14.83;;;10.90;99.90;;;8.61;92.13;100773.78;10494134;28;20060;-83
2022/11/14 15:02:55;;;;;;;25.17;13.40;;;10.80;99.90;;;8.45;92.50;100772.53;10499464;28;20057;-82
2022/11/14 15:07:59;;;;;;;23.23;14.10;;;10.60;99.90;;;8.30;93.13;100772.09;10454671;28;20061;-83
2022/11/14 15:13:03;;;;;;;27.53;15.53;;;10.50;99.90;;;8.11;93.56;100772.09;10456356;28;20446;-83
2022/11/14 15:18:13;;;;;;;33.00;16.50;;;10.30;99.90;;;7.93;93.90;100779.03;10478605;28;20057;-83
2022/11/14 15:23:19;;;;;;;35.90;16.67;;;10.10;99.90;;;7.73;94.43;100778.97;10477559;28;20053;-83
2022/11/14 15:28:28;;;;;;;59.43;25.90;;;10.00;99.90;;;7.52;94.55;100775.59;10505605;28;20148;-82
2022/11/14 15:33:34;;;;;;;79.67;33.03;;;9.80;99.90;;;7.30;95.28;100773.97;10431865;28;20061;-82
2022/11/14 15:38:37;;;;;;;60.63;27.23;;;9.50;99.90;;;7.10;95.52;100770.41;10469804;28;20064;-82
2022/11/14 15:43:51;;;;;;;41.63;21.73;;;9.30;99.90;;;6.90;96.06;100773.91;10490787;28;20164;-81
2022/11/14 15:48:54;;;;;;;37.90;18.33;;;9.10;99.90;;;6.73;96.41;100775.34;10506961;28;20060;-85
2022/11/14 15:53:57;;;;;;;36.30;19.03;;;8.90;99.90;;;6.57;97.13;100781.03;10499937;28;20057;-83
2022/11/14 15:59:00;;;;;;;44.37;19.83;;;8.80;99.90;;;6.42;97.71;100774.41;10492722;28;20061;-86
2022/11/14 16:04:19;;;;;;;36.63;19.70;;;8.60;99.90;;;6.31;98.53;100772.66;10493014;28;20061;-86
2022/11/14 16:09:22;;;;;;;48.07;23.40;;;8.50;99.90;;;6.19;98.73;100783.38;10474270;28;20084;-85
2022/11/14 16:14:25;;;;;;;56.80;26.20;;;8.40;99.90;;;6.07;99.12;100786.06;10487834;28;20071;-94
2022/11/14 16:19:28;;;;;;;55.03;26.77;;;8.30;99.90;;;5.96;99.64;100785.25;10493555;28;20057;-95
2022/11/14 16:24:31;;;;;;;53.43;26.00;;;8.20;99.90;;;5.83;100.00;100783.56;10495538;28;20054;-84
2022/11/14 16:29:36;;;;;;;57.40;27.33;;;8.10;99.90;;;5.72;100.00;100780.94;10487712;28;20220;-84
2022/11/14 16:34:38;;;;;;;56.70;29.33;;;7.90;99.90;;;5.61;100.00;100781.78;10496169;28;20092;-85
2022/11/14 16:39:41;;;;;;;74.00;33.00;;;7.80;99.90;;;5.53;100.00;100778.94;10480435;28;20116;-85
2022/11/14 16:44:44;;;;;;;92.30;38.43;;;7.80;99.90;;;5.43;100.00;100795.59;10476904;28;20524;-84
2022/11/14 16:49:52;;;;;;;76.00;33.43;;;7.70;99.90;;;5.34;100.00;100790.09;10455573;28;20068;-85
2022/11/14 16:54:55;;;;;;;70.33;31.77;;;7.60;99.90;;;5.26;100.00;100799.53;10504002;28;20521;-85
2022/11/14 16:59:59;;;;;;;61.70;30.23;;;7.50;99.90;;;5.15;100.00;100791.63;10481189;28;20144;-85
2022/11/14 17:05:03;;;;;;;49.13;24.07;;;7.40;99.90;;;5.04;100.00;100790.66;10469426;28;20057;-84
2022/11/14 17:10:07;;;;;;;41.50;21.23;;;7.30;99.90;;;4.95;100.00;100794.00;10495174;28;20068;-85
2022/11/14 17:15:10;;;;;;;42.50;19.90;;;7.20;99.90;;;4.86;100.00;100793.84;10497956;28;20060;-86
2022/11/14 17:20:13;;;;;;;60.23;29.37;;;7.10;99.90;;;4.79;100.00;100802.22;10465532;28;20115;-85
2022/11/14 17:25:16;;;;;;;67.20;35.57;;;7.00;99.90;;;4.73;100.00;100789.50;10497375;28;20061;-85
2022/11/14 17:30:19;;;;;;;61.53;31.47;;;7.00;99.90;;;4.70;100.00;100791.53;10515922;28;20456;-85
2022/11/14 17:35:21;;;;;;;59.87;32.10;;;7.00;99.90;;;4.64;100.00;100790.22;10501291;28;20501;-86
2022/11/14 17:40:24;;;;;;;39.23;21.67;;;6.90;99.90;;;4.57;100.00;100786.38;10500532;28;20096;-84
2022/11/14 17:45:28;;;;;;;40.00;20.53;;;6.90;99.90;;;4.48;100.00;100785.25;10484004;28;20068;-84
2022/11/14 17:50:31;;;;;;;40.00;20.30;;;6.80;99.90;;;4.37;100.00;100777.31;10488884;28;20061;-85
2022/11/14 17:55:39;;;;;;;48.17;23.53;;;6.70;99.90;;;4.29;100.00;100777.03;10504662;28;20060;-84
2022/11/14 18:00:42;;;;;;;44.83;21.13;;;6.60;99.90;;;4.23;100.00;100777.50;10483501;28;20053;-84
2022/11/14 18:05:46;;;;;;;63.77;33.80;;;6.50;99.90;;;4.16;100.00;100777.13;10502777;28;20131;-84
2022/11/14 18:10:49;;;;;;;47.00;24.33;;;6.50;99.90;;;4.11;100.00;100779.25;10500271;28;20056;-84
2022/11/14 18:15:52;;;;;;;37.97;20.43;;;6.40;99.90;;;4.06;100.00;100785.78;10488890;28;20168;-84
2022/11/14 18:20:55;;;;;;;32.73;15.97;;;6.40;99.90;;;3.97;100.00;100779.41;10519966;28;20059;-84
2022/11/14 18:25:58;;;;;;;32.67;17.00;;;6.30;99.90;;;3.89;100.00;100769.44;10496291;28;20509;-84
2022/11/14 18:31:03;;;;;;;33.80;16.23;;;6.20;99.90;;;3.82;100.00;100775.25;10452370;28;20061;-87
2022/11/14 18:36:11;;;;;;;33.10;16.73;;;6.10;99.90;;;3.74;100.00;100773.19;10477095;28;20156;-80
2022/11/14 18:41:20;;;;;;;31.20;15.17;;;6.00;99.90;;;3.61;100.00;100770.59;10501129;28;20059;-80
2022/11/14 18:46:24;;;;;;;29.73;14.70;;;5.90;99.90;;;3.53;100.00;100772.06;10461851;28;20053;-80
2022/11/14 18:51:28;;;;;;;35.57;16.80;;;5.80;99.90;;;3.46;100.00;100761.16;10495780;28;20057;-80
2022/11/14 18:56:31;;;;;;;32.60;17.00;;;5.80;99.90;;;3.40;100.00;100762.44;10485154;28;20057;-79
2022/11/14 19:01:35;;;;;;;46.47;21.50;;;5.70;99.90;;;3.35;100.00;100764.53;10492813;28;20414;-79
2022/11/14 19:06:40;;;;;;;59.30;27.10;;;5.60;99.90;;;3.31;100.00;100770.97;10478133;28;20085;-79
2022/11/14 19:17:05;;;;;;;55.15;26.63;;;5.60;99.90;;;3.26;100.00;100769.59;10481300;28;20067;-82
2022/11/14 19:22:08;;;;;;;59.23;28.90;;;5.50;99.90;;;3.32;100.00;100777.06;10490313;28;20057;-80
2022/11/14 19:27:15;;;;;;;51.93;25.40;;;5.60;99.90;;;3.34;100.00;100768.13;10494853;28;20083;-80
2022/11/14 19:32:17;;;;;;;75.87;32.30;;;5.60;99.90;;;3.40;100.00;100770.31;10503743;28;20057;-81
2022/11/14 19:37:20;;;;;;;62.67;23.77;;;5.70;99.90;;;3.51;100.00;100758.22;10494576;28;20065;-80
2022/11/14 19:42:23;;;;;;;79.23;23.67;;;5.80;99.90;;;3.64;100.00;100766.88;10503788;28;20079;-81
2022/11/14 19:47:26;;;;;;;50.13;19.83;;;5.90;99.90;;;3.75;100.00;100764.34;10474604;28;20069;-81
2022/11/14 19:52:29;;;;;;;62.93;20.27;;;6.00;99.90;;;3.88;100.00;100778.28;10494383;28;20057;-81
2022/11/14 19:57:32;;;;;;;48.87;17.43;;;6.10;99.90;;;3.98;100.00;100757.41;10500093;28;20436;-82
2022/11/14 20:02:39;;;;;;;67.20;20.67;;;6.20;99.90;;;4.09;100.00;100754.00;10530618;28;20060;-80
2022/11/14 20:07:42;;;;;;;49.53;18.57;;;6.30;99.90;;;4.18;100.00;100748.06;10478427;28;20064;-80
2022/11/14 20:12:45;;;;;;;43.07;15.43;;;6.40;99.90;;;4.22;100.00;100749.53;10484174;28;20056;-81
2022/11/14 20:17:48;;;;;;;59.03;18.17;;;6.50;99.90;;;4.28;100.00;100749.91;10497329;28;20061;-80
2022/11/14 20:22:52;;;;;;;97.93;18.33;;;6.50;99.90;;;4.34;100.00;100751.25;10505455;28;20057;-80
2022/11/14 20:27:55;;;;;;;74.97;17.13;;;6.60;99.90;;;4.40;100.00;100752.56;10516585;28;20065;-81
2022/11/14 20:32:58;;;;;;;69.60;15.47;;;6.60;99.90;;;4.43;100.00;100741.81;10508581;28;20139;-82
2022/11/14 20:38:01;;;;;;;57.63;14.13;;;6.70;99.90;;;4.45;100.00;100747.81;10491800;28;20052;-82
2022/11/14 20:43:07;;;;;;;40.13;13.97;;;6.70;99.90;;;4.42;100.00;100740.97;10514170;28;20053;-82
2022/11/14 20:48:10;;;;;;;47.17;16.80;;;6.60;99.90;;;4.38;100.00;100742.19;10503562;28;20061;-82
2022/11/14 20:53:13;;;;;;;38.17;15.77;;;6.60;99.90;;;4.35;100.00;100738.91;10496383;28;20064;-83
2022/11/14 20:58:16;;;;;;;46.73;18.50;;;6.50;99.90;;;4.32;100.00;100726.84;10459242;28;20527;-83
2022/11/14 21:03:20;;;;;;;58.43;18.63;;;6.50;99.90;;;4.34;100.00;100722.28;10486896;28;20061;-83
2022/11/14 21:08:23;;;;;;;61.80;23.20;;;6.60;99.90;;;4.29;100.00;100719.16;10485552;28;20068;-82
2022/11/14 21:18:52;;;;;;;60.00;19.08;;;6.40;99.90;;;4.15;100.00;100720.19;10505456;28;20053;-83
2022/11/14 21:23:56;;;;;;;35.00;14.50;;;6.40;99.90;;;4.11;100.00;100715.28;10476018;28;20060;-84